sensor_id;sensor_type;location;lat;lon;timestamp;temperature;humidity
1297;DHT22;641;48.492;9.184;2024-03-08T00:00:14;3.10;99.90
1297;DHT22;641;48.492;9.184;2024-03-08T00:02:41;3.20;99.90
1297;DHT22;641;48.492;9.184;2024-03-08T00:05:08;3.10;99.90
1297;DHT22;641;48.492;9.184;2024-03-08T00:07:37;3.10;99.90
1297;DHT22;641;48.492;9.184;2024-03-08T00:10:07;3.00;99.90
1297;DHT22;641;48.492;9.184;2024-03-08T00:12:45;2.90;99.90
1297;DHT22;641;48.492;9.184;2024-03-08T00:15:12;2.90;99.90
1297;DHT22;641;48.492;9.184;2024-03-08T00:17:40;2.90;99.90
1297;DHT22;641;48.492;9.184;2024-03-08T00:20:06;2.90;99.90
1297;DHT22;641;48.492;9.184;2024-03-08T00:22:37;2.90;99.90
1297;DHT22;641;48.492;9.184;2024-03-08T00:25:04;2.90;99.90
1297;DHT22;641;48.492;9.184;2024-03-08T00:27:30;2.80;99.90
1297;DHT22;641;48.492;9.184;2024-03-08T00:29:59;2.80;99.90
1297;DHT22;641;48.492;9.184;2024-03-08T00:32:24;2.80;99.90
1297;DHT22;641;48.492;9.184;2024-03-08T00:34:50;3.00;99.90
1297;DHT22;641;48.492;9.184;2024-03-08T00:37:20;3.10;99.90
1297;DHT22;641;48.492;9.184;2024-03-08T00:39:47;3.00;99.90
1297;DHT22;641;48.492;9.184;2024-03-08T00:42:14;3.00;99.90
1297;DHT22;641;48.492;9.184;2024-03-08T00:44:40;3.10;99.90
1297;DHT22;641;48.492;9.184;2024-03-08T00:47:06;3.20;99.90
1297;DHT22;641;48.492;9.184;2024-03-08T00:49:31;3.10;99.90
1297;DHT22;641;48.492;9.184;2024-03-08T00:51:57;3.00;99.90
1297;DHT22;641;48.492;9.184;2024-03-08T00:54:23;3.00;99.90
1297;DHT22;641;48.492;9.184;2024-03-08T00:56:48;2.90;99.90
1297;DHT22;641;48.492;9.184;2024-03-08T00:59:14;2.90;99.90
1297;DHT22;641;48.492;9.184;2024-03-08T01:01:40;2.90;99.90
1297;DHT22;641;48.492;9.184;2024-03-08T01:04:05;2.80;99.90
1297;DHT22;641;48.492;9.184;2024-03-08T01:06:32;2.90;99.90
1297;DHT22;641;48.492;9.184;2024-03-08T01:08:58;2.70;99.90
1297;DHT22;641;48.492;9.184;2024-03-08T01:11:24;2.70;99.90
1297;DHT22;641;48.492;9.184;2024-03-08T01:13:49;2.60;99.90
1297;DHT22;641;48.492;9.184;2024-03-08T01:16:15;2.70;99.90
1297;DHT22;641;48.492;9.184;2024-03-08T01:18:42;2.70;99.90
1297;DHT22;641;48.492;9.184;2024-03-08T01:21:08;2.60;99.90
1297;DHT22;641;48.492;9.184;2024-03-08T01:23:34;2.50;99.90
1297;DHT22;641;48.492;9.184;2024-03-08T01:26:00;2.40;99.90
1297;DHT22;641;48.492;9.184;2024-03-08T01:28:27;2.30;99.90
1297;DHT22;641;48.492;9.184;2024-03-08T01:30:53;2.40;99.90
1297;DHT22;641;48.492;9.184;2024-03-08T01:33:26;2.30;99.90
1297;DHT22;641;48.492;9.184;2024-03-08T01:35:53;2.30;99.90
1297;DHT22;641;48.492;9.184;2024-03-08T01:38:19;2.30;99.90
1297;DHT22;641;48.492;9.184;2024-03-08T01:40:47;2.20;99.90
1297;DHT22;641;48.492;9.184;2024-03-08T01:43:26;2.10;99.90
1297;DHT22;641;48.492;9.184;2024-03-08T01:45:57;2.00;99.90
1297;DHT22;641;48.492;9.184;2024-03-08T01:48:27;1.90;99.90
1297;DHT22;641;48.492;9.184;2024-03-08T01:50:55;1.80;99.90
1297;DHT22;641;48.492;9.184;2024-03-08T01:53:22;1.70;99.90
1297;DHT22;641;48.492;9.184;2024-03-08T01:55:48;1.60;99.90
1297;DHT22;641;48.492;9.184;2024-03-08T01:58:15;1.80;99.90
1297;DHT22;641;48.492;9.184;2024-03-08T02:00:43;1.80;99.90
1297;DHT22;641;48.492;9.184;2024-03-08T02:03:09;1.80;99.90
1297;DHT22;641;48.492;9.184;2024-03-08T02:05:36;1.80;99.90
1297;DHT22;641;48.492;9.184;2024-03-08T02:08:04;1.80;99.90
1297;DHT22;641;48.492;9.184;2024-03-08T02:10:31;1.80;99.90
1297;DHT22;641;48.492;9.184;2024-03-08T02:12:57;1.90;99.90
1297;DHT22;641;48.492;9.184;2024-03-08T02:15:23;1.80;99.90
1297;DHT22;641;48.492;9.184;2024-03-08T02:17:49;1.80;99.90
1297;DHT22;641;48.492;9.184;2024-03-08T02:20:14;1.70;99.90
1297;DHT22;641;48.492;9.184;2024-03-08T02:22:40;1.60;99.90
1297;DHT22;641;48.492;9.184;2024-03-08T02:25:06;1.60;99.90
1297;DHT22;641;48.492;9.184;2024-03-08T02:27:32;1.70;99.90
1297;DHT22;641;48.492;9.184;2024-03-08T02:29:58;1.70;99.90
1297;DHT22;641;48.492;9.184;2024-03-08T02:32:24;1.70;99.90
1297;DHT22;641;48.492;9.184;2024-03-08T02:34:50;1.60;99.90
1297;DHT22;641;48.492;9.184;2024-03-08T02:37:16;1.60;99.90
1297;DHT22;641;48.492;9.184;2024-03-08T02:39:42;1.60;99.90
1297;DHT22;641;48.492;9.184;2024-03-08T02:42:08;1.60;99.90
1297;DHT22;641;48.492;9.184;2024-03-08T02:44:33;1.60;99.90
1297;DHT22;641;48.492;9.184;2024-03-08T02:46:59;1.50;99.90
1297;DHT22;641;48.492;9.184;2024-03-08T02:49:28;1.60;99.90
1297;DHT22;641;48.492;9.184;2024-03-08T02:51:53;1.60;99.90
1297;DHT22;641;48.492;9.184;2024-03-08T02:54:19;1.60;99.90
1297;DHT22;641;48.492;9.184;2024-03-08T02:56:46;1.70;99.90
1297;DHT22;641;48.492;9.184;2024-03-08T02:59:12;1.60;99.90
1297;DHT22;641;48.492;9.184;2024-03-08T03:01:38;1.40;99.90
1297;DHT22;641;48.492;9.184;2024-03-08T03:04:04;1.50;99.90
1297;DHT22;641;48.492;9.184;2024-03-08T03:06:30;1.40;99.90
1297;DHT22;641;48.492;9.184;2024-03-08T03:08:57;1.30;99.90
1297;DHT22;641;48.492;9.184;2024-03-08T03:11:23;1.20;99.90
1297;DHT22;641;48.492;9.184;2024-03-08T03:13:48;1.10;99.90
1297;DHT22;641;48.492;9.184;2024-03-08T03:16:18;1.10;99.90
1297;DHT22;641;48.492;9.184;2024-03-08T03:18:45;1.00;99.90
1297;DHT22;641;48.492;9.184;2024-03-08T03:21:11;1.00;99.90
1297;DHT22;641;48.492;9.184;2024-03-08T03:23:41;1.00;99.90
1297;DHT22;641;48.492;9.184;2024-03-08T03:26:09;1.00;99.90
1297;DHT22;641;48.492;9.184;2024-03-08T03:28:37;1.10;99.90
1297;DHT22;641;48.492;9.184;2024-03-08T03:31:06;1.10;99.90
1297;DHT22;641;48.492;9.184;2024-03-08T03:33:31;1.10;99.90
1297;DHT22;641;48.492;9.184;2024-03-08T03:35:59;1.10;99.90
1297;DHT22;641;48.492;9.184;2024-03-08T03:38:26;1.00;99.90
1297;DHT22;641;48.492;9.184;2024-03-08T03:40:53;1.00;99.90
1297;DHT22;641;48.492;9.184;2024-03-08T03:43:23;1.00;99.90
1297;DHT22;641;48.492;9.184;2024-03-08T03:45:48;0.90;99.90
1297;DHT22;641;48.492;9.184;2024-03-08T03:48:14;0.80;99.90
1297;DHT22;641;48.492;9.184;2024-03-08T03:50:39;0.80;99.90
1297;DHT22;641;48.492;9.184;2024-03-08T03:53:05;0.70;99.90
1297;DHT22;641;48.492;9.184;2024-03-08T03:55:34;0.70;99.90
1297;DHT22;641;48.492;9.184;2024-03-08T03:57:59;0.70;99.90
1297;DHT22;641;48.492;9.184;2024-03-08T04:00:26;0.70;99.90
1297;DHT22;641;48.492;9.184;2024-03-08T04:02:52;0.70;99.90
1297;DHT22;641;48.492;9.184;2024-03-08T04:05:18;0.80;99.90
1297;DHT22;641;48.492;9.184;2024-03-08T04:07:43;0.80;99.90
1297;DHT22;641;48.492;9.184;2024-03-08T04:10:10;0.80;99.90
1297;DHT22;641;48.492;9.184;2024-03-08T04:12:37;0.80;99.90
1297;DHT22;641;48.492;9.184;2024-03-08T04:15:03;0.80;99.90
1297;DHT22;641;48.492;9.184;2024-03-08T04:17:28;0.80;99.90
1297;DHT22;641;48.492;9.184;2024-03-08T04:19:54;0.80;99.90
1297;DHT22;641;48.492;9.184;2024-03-08T04:22:20;0.80;99.90
1297;DHT22;641;48.492;9.184;2024-03-08T04:24:46;0.80;99.90
1297;DHT22;641;48.492;9.184;2024-03-08T04:27:13;0.80;99.90
1297;DHT22;641;48.492;9.184;2024-03-08T04:29:39;0.90;99.90
1297;DHT22;641;48.492;9.184;2024-03-08T04:32:06;1.00;99.90
1297;DHT22;641;48.492;9.184;2024-03-08T04:34:35;1.00;99.90
1297;DHT22;641;48.492;9.184;2024-03-08T04:37:01;1.00;99.90
1297;DHT22;641;48.492;9.184;2024-03-08T04:39:27;1.00;99.90
1297;DHT22;641;48.492;9.184;2024-03-08T04:41:59;1.10;99.90
1297;DHT22;641;48.492;9.184;2024-03-08T04:44:26;1.20;99.90
1297;DHT22;641;48.492;9.184;2024-03-08T04:46:51;1.30;99.90
1297;DHT22;641;48.492;9.184;2024-03-08T04:49:17;1.30;99.90
1297;DHT22;641;48.492;9.184;2024-03-08T04:51:42;1.30;99.90
1297;DHT22;641;48.492;9.184;2024-03-08T04:54:10;1.50;99.90
1297;DHT22;641;48.492;9.184;2024-03-08T04:56:35;1.50;99.90
1297;DHT22;641;48.492;9.184;2024-03-08T04:59:01;1.60;99.90
1297;DHT22;641;48.492;9.184;2024-03-08T05:01:27;1.70;99.90
1297;DHT22;641;48.492;9.184;2024-03-08T05:03:52;1.70;99.90
1297;DHT22;641;48.492;9.184;2024-03-08T05:06:20;1.70;99.90
1297;DHT22;641;48.492;9.184;2024-03-08T05:08:46;1.80;99.90
1297;DHT22;641;48.492;9.184;2024-03-08T05:11:11;1.90;99.90
1297;DHT22;641;48.492;9.184;2024-03-08T05:13:40;2.00;99.90
1297;DHT22;641;48.492;9.184;2024-03-08T05:16:05;2.00;99.90
1297;DHT22;641;48.492;9.184;2024-03-08T05:18:33;2.00;99.90
1297;DHT22;641;48.492;9.184;2024-03-08T05:20:59;2.00;99.90
1297;DHT22;641;48.492;9.184;2024-03-08T05:23:24;2.10;99.90
1297;DHT22;641;48.492;9.184;2024-03-08T05:25:50;2.10;99.90
1297;DHT22;641;48.492;9.184;2024-03-08T05:28:15;2.00;99.90
1297;DHT22;641;48.492;9.184;2024-03-08T05:30:41;2.10;99.90
1297;DHT22;641;48.492;9.184;2024-03-08T05:33:06;2.10;99.90
1297;DHT22;641;48.492;9.184;2024-03-08T05:35:36;2.10;99.90
1297;DHT22;641;48.492;9.184;2024-03-08T05:38:01;2.10;99.90
1297;DHT22;641;48.492;9.184;2024-03-08T05:40:27;2.20;99.90
1297;DHT22;641;48.492;9.184;2024-03-08T05:42:57;2.20;99.90
1297;DHT22;641;48.492;9.184;2024-03-08T05:45:23;2.20;99.90
1297;DHT22;641;48.492;9.184;2024-03-08T05:47:50;2.30;99.90
1297;DHT22;641;48.492;9.184;2024-03-08T05:50:17;2.30;99.90
1297;DHT22;641;48.492;9.184;2024-03-08T05:52:43;2.30;99.90
1297;DHT22;641;48.492;9.184;2024-03-08T05:55:08;2.40;99.90
1297;DHT22;641;48.492;9.184;2024-03-08T05:57:35;2.30;99.90
1297;DHT22;641;48.492;9.184;2024-03-08T06:00:04;2.30;99.90
1297;DHT22;641;48.492;9.184;2024-03-08T06:02:29;2.40;99.90
1297;DHT22;641;48.492;9.184;2024-03-08T06:04:55;2.40;99.90
1297;DHT22;641;48.492;9.184;2024-03-08T06:07:20;2.40;99.90
1297;DHT22;641;48.492;9.184;2024-03-08T06:09:46;2.40;99.90
1297;DHT22;641;48.492;9.184;2024-03-08T06:12:13;2.40;99.90
1297;DHT22;641;48.492;9.184;2024-03-08T06:14:44;2.50;99.90
1297;DHT22;641;48.492;9.184;2024-03-08T06:17:10;2.50;99.90
1297;DHT22;641;48.492;9.184;2024-03-08T06:19:36;2.50;99.90
1297;DHT22;641;48.492;9.184;2024-03-08T06:22:02;2.50;99.90
1297;DHT22;641;48.492;9.184;2024-03-08T06:24:31;2.50;99.90
1297;DHT22;641;48.492;9.184;2024-03-08T06:26:57;2.50;99.90
1297;DHT22;641;48.492;9.184;2024-03-08T06:29:23;2.60;99.90
1297;DHT22;641;48.492;9.184;2024-03-08T06:31:49;2.60;99.90
1297;DHT22;641;48.492;9.184;2024-03-08T06:34:15;2.60;99.90
1297;DHT22;641;48.492;9.184;2024-03-08T06:36:41;2.70;99.90
1297;DHT22;641;48.492;9.184;2024-03-08T06:39:06;2.70;99.90
1297;DHT22;641;48.492;9.184;2024-03-08T06:41:36;2.70;99.90
1297;DHT22;641;48.492;9.184;2024-03-08T06:44:02;2.70;99.90
1297;DHT22;641;48.492;9.184;2024-03-08T06:46:27;2.70;99.90
1297;DHT22;641;48.492;9.184;2024-03-08T06:48:53;2.80;99.90
1297;DHT22;641;48.492;9.184;2024-03-08T06:51:19;2.80;99.90
1297;DHT22;641;48.492;9.184;2024-03-08T06:53:45;2.90;99.90
1297;DHT22;641;48.492;9.184;2024-03-08T06:56:10;2.90;99.90
1297;DHT22;641;48.492;9.184;2024-03-08T06:58:36;2.90;99.90
1297;DHT22;641;48.492;9.184;2024-03-08T07:01:02;2.80;99.90
1297;DHT22;641;48.492;9.184;2024-03-08T07:03:32;2.90;99.90
1297;DHT22;641;48.492;9.184;2024-03-08T07:05:58;3.00;99.90
1297;DHT22;641;48.492;9.184;2024-03-08T07:08:24;3.00;99.90
1297;DHT22;641;48.492;9.184;2024-03-08T07:10:49;3.00;99.90
1297;DHT22;641;48.492;9.184;2024-03-08T07:13:15;3.00;99.90
1297;DHT22;641;48.492;9.184;2024-03-08T07:15:43;3.00;99.90
1297;DHT22;641;48.492;9.184;2024-03-08T07:18:08;3.10;99.90
1297;DHT22;641;48.492;9.184;2024-03-08T07:20:34;3.10;99.90
1297;DHT22;641;48.492;9.184;2024-03-08T07:23:00;3.10;99.90
1297;DHT22;641;48.492;9.184;2024-03-08T07:25:26;3.10;99.90
1297;DHT22;641;48.492;9.184;2024-03-08T07:27:55;3.10;99.90
1297;DHT22;641;48.492;9.184;2024-03-08T07:30:23;3.10;99.90
1297;DHT22;641;48.492;9.184;2024-03-08T07:33:21;3.10;99.90
1297;DHT22;641;48.492;9.184;2024-03-08T07:35:48;3.10;99.90
1297;DHT22;641;48.492;9.184;2024-03-08T07:38:15;3.10;99.90
1297;DHT22;641;48.492;9.184;2024-03-08T07:40:42;3.10;99.90
1297;DHT22;641;48.492;9.184;2024-03-08T07:43:11;3.10;99.90
1297;DHT22;641;48.492;9.184;2024-03-08T07:45:37;3.10;99.90
1297;DHT22;641;48.492;9.184;2024-03-08T07:48:03;3.10;99.90
1297;DHT22;641;48.492;9.184;2024-03-08T07:50:29;3.20;99.90
1297;DHT22;641;48.492;9.184;2024-03-08T07:52:55;3.30;99.90
1297;DHT22;641;48.492;9.184;2024-03-08T07:55:20;3.40;99.90
1297;DHT22;641;48.492;9.184;2024-03-08T07:57:49;3.50;99.90
1297;DHT22;641;48.492;9.184;2024-03-08T08:00:15;3.40;99.90
1297;DHT22;641;48.492;9.184;2024-03-08T08:02:46;3.40;99.90
1297;DHT22;641;48.492;9.184;2024-03-08T08:05:12;3.40;99.90
1297;DHT22;641;48.492;9.184;2024-03-08T08:07:39;3.40;99.90
1297;DHT22;641;48.492;9.184;2024-03-08T08:10:06;3.50;99.90
1297;DHT22;641;48.492;9.184;2024-03-08T08:12:32;3.40;99.90
1297;DHT22;641;48.492;9.184;2024-03-08T08:14:59;3.40;99.90
1297;DHT22;641;48.492;9.184;2024-03-08T08:17:25;3.30;99.90
1297;DHT22;641;48.492;9.184;2024-03-08T08:19:51;3.30;99.90
1297;DHT22;641;48.492;9.184;2024-03-08T08:22:16;3.30;99.90
1297;DHT22;641;48.492;9.184;2024-03-08T08:24:43;3.40;99.90
1297;DHT22;641;48.492;9.184;2024-03-08T08:27:09;3.40;99.90
1297;DHT22;641;48.492;9.184;2024-03-08T08:29:34;3.50;99.90
1297;DHT22;641;48.492;9.184;2024-03-08T08:32:00;3.50;99.90
1297;DHT22;641;48.492;9.184;2024-03-08T08:34:26;3.50;99.90
1297;DHT22;641;48.492;9.184;2024-03-08T08:36:52;3.50;99.90
1297;DHT22;641;48.492;9.184;2024-03-08T08:39:18;3.60;99.90
1297;DHT22;641;48.492;9.184;2024-03-08T08:41:44;3.60;99.90
1297;DHT22;641;48.492;9.184;2024-03-08T08:44:09;3.70;99.90
1297;DHT22;641;48.492;9.184;2024-03-08T08:46:37;3.60;99.90
1297;DHT22;641;48.492;9.184;2024-03-08T08:49:04;3.60;99.90
1297;DHT22;641;48.492;9.184;2024-03-08T08:51:30;3.70;99.90
1297;DHT22;641;48.492;9.184;2024-03-08T08:53:56;3.70;99.90
1297;DHT22;641;48.492;9.184;2024-03-08T08:56:22;3.70;99.90
1297;DHT22;641;48.492;9.184;2024-03-08T08:58:47;3.80;99.90
1297;DHT22;641;48.492;9.184;2024-03-08T09:01:14;3.70;99.90
1297;DHT22;641;48.492;9.184;2024-03-08T09:03:40;3.80;99.90
1297;DHT22;641;48.492;9.184;2024-03-08T09:06:09;3.90;99.90
1297;DHT22;641;48.492;9.184;2024-03-08T09:08:35;3.90;99.90
1297;DHT22;641;48.492;9.184;2024-03-08T09:11:01;4.00;99.90
1297;DHT22;641;48.492;9.184;2024-03-08T09:13:27;4.00;99.90
1297;DHT22;641;48.492;9.184;2024-03-08T09:15:53;4.20;99.90
1297;DHT22;641;48.492;9.184;2024-03-08T09:18:18;4.40;99.90
1297;DHT22;641;48.492;9.184;2024-03-08T09:20:44;4.60;99.90
1297;DHT22;641;48.492;9.184;2024-03-08T09:23:10;4.70;99.90
1297;DHT22;641;48.492;9.184;2024-03-08T09:25:35;4.80;99.90
1297;DHT22;641;48.492;9.184;2024-03-08T09:28:01;4.80;99.90
1297;DHT22;641;48.492;9.184;2024-03-08T09:30:26;4.80;99.90
1297;DHT22;641;48.492;9.184;2024-03-08T09:32:52;4.80;99.90
1297;DHT22;641;48.492;9.184;2024-03-08T09:35:18;4.90;99.90
1297;DHT22;641;48.492;9.184;2024-03-08T09:37:43;5.10;99.90
1297;DHT22;641;48.492;9.184;2024-03-08T09:40:09;5.20;99.90
1297;DHT22;641;48.492;9.184;2024-03-08T09:42:35;5.30;99.90
1297;DHT22;641;48.492;9.184;2024-03-08T09:45:10;5.40;99.90
1297;DHT22;641;48.492;9.184;2024-03-08T09:47:44;5.40;99.90
1297;DHT22;641;48.492;9.184;2024-03-08T09:50:11;5.50;99.90
1297;DHT22;641;48.492;9.184;2024-03-08T09:52:41;5.50;99.90
1297;DHT22;641;48.492;9.184;2024-03-08T09:55:10;5.60;99.90
1297;DHT22;641;48.492;9.184;2024-03-08T09:57:40;5.60;99.90
1297;DHT22;641;48.492;9.184;2024-03-08T10:00:06;5.60;99.90
1297;DHT22;641;48.492;9.184;2024-03-08T10:02:47;5.70;99.90
1297;DHT22;641;48.492;9.184;2024-03-08T10:05:13;5.80;99.90
1297;DHT22;641;48.492;9.184;2024-03-08T10:07:39;5.70;99.90
1297;DHT22;641;48.492;9.184;2024-03-08T10:10:05;5.80;99.90
1297;DHT22;641;48.492;9.184;2024-03-08T10:12:34;6.00;99.90
1297;DHT22;641;48.492;9.184;2024-03-08T10:15:00;5.90;99.90
1297;DHT22;641;48.492;9.184;2024-03-08T10:17:26;6.10;99.90
1297;DHT22;641;48.492;9.184;2024-03-08T10:19:52;6.20;99.90
1297;DHT22;641;48.492;9.184;2024-03-08T10:22:19;6.20;99.90
1297;DHT22;641;48.492;9.184;2024-03-08T10:24:47;6.20;99.90
1297;DHT22;641;48.492;9.184;2024-03-08T10:27:13;6.20;99.90
1297;DHT22;641;48.492;9.184;2024-03-08T10:29:39;6.10;99.90
1297;DHT22;641;48.492;9.184;2024-03-08T10:32:09;6.20;99.90
1297;DHT22;641;48.492;9.184;2024-03-08T10:34:34;6.20;99.90
1297;DHT22;641;48.492;9.184;2024-03-08T10:37:04;6.40;99.90
1297;DHT22;641;48.492;9.184;2024-03-08T10:39:34;6.40;99.90
1297;DHT22;641;48.492;9.184;2024-03-08T10:42:03;6.50;99.90
1297;DHT22;641;48.492;9.184;2024-03-08T10:47:22;6.70;99.90
1297;DHT22;641;48.492;9.184;2024-03-08T10:49:54;6.80;99.90
1297;DHT22;641;48.492;9.184;2024-03-08T10:52:21;6.80;99.90
1297;DHT22;641;48.492;9.184;2024-03-08T10:54:47;6.70;99.90
1297;DHT22;641;48.492;9.184;2024-03-08T10:57:18;6.50;99.90
1297;DHT22;641;48.492;9.184;2024-03-08T10:59:43;6.50;99.90
1297;DHT22;641;48.492;9.184;2024-03-08T11:02:11;6.70;99.90
1297;DHT22;641;48.492;9.184;2024-03-08T11:04:37;6.80;99.90
1297;DHT22;641;48.492;9.184;2024-03-08T11:07:03;6.90;99.90
1297;DHT22;641;48.492;9.184;2024-03-08T11:09:36;6.50;99.90
1297;DHT22;641;48.492;9.184;2024-03-08T11:12:25;6.60;99.90
1297;DHT22;641;48.492;9.184;2024-03-08T11:14:54;6.80;99.90
1297;DHT22;641;48.492;9.184;2024-03-08T11:19:59;6.80;99.90
1297;DHT22;641;48.492;9.184;2024-03-08T11:22:32;6.80;99.90
1297;DHT22;641;48.492;9.184;2024-03-08T11:25:05;6.60;99.90
1297;DHT22;641;48.492;9.184;2024-03-08T11:27:36;6.50;99.90
1297;DHT22;641;48.492;9.184;2024-03-08T11:30:07;6.30;99.90
1297;DHT22;641;48.492;9.184;2024-03-08T11:32:37;6.20;99.90
1297;DHT22;641;48.492;9.184;2024-03-08T11:35:06;6.30;99.90
1297;DHT22;641;48.492;9.184;2024-03-08T11:37:34;6.30;99.90
1297;DHT22;641;48.492;9.184;2024-03-08T11:40:11;6.30;99.90
1297;DHT22;641;48.492;9.184;2024-03-08T11:42:40;6.30;99.90
1297;DHT22;641;48.492;9.184;2024-03-08T11:45:09;6.30;99.90
1297;DHT22;641;48.492;9.184;2024-03-08T11:47:37;6.30;99.90
1297;DHT22;641;48.492;9.184;2024-03-08T11:50:06;6.30;99.90
1297;DHT22;641;48.492;9.184;2024-03-08T11:52:36;6.40;99.90
1297;DHT22;641;48.492;9.184;2024-03-08T11:55:03;6.40;99.90
1297;DHT22;641;48.492;9.184;2024-03-08T11:57:30;6.40;99.90
1297;DHT22;641;48.492;9.184;2024-03-08T11:59:56;6.40;99.90
1297;DHT22;641;48.492;9.184;2024-03-08T12:02:22;6.40;99.90
1297;DHT22;641;48.492;9.184;2024-03-08T12:04:56;6.50;99.90
1297;DHT22;641;48.492;9.184;2024-03-08T12:07:22;6.50;99.90
1297;DHT22;641;48.492;9.184;2024-03-08T12:10:20;6.40;99.90
1297;DHT22;641;48.492;9.184;2024-03-08T12:12:51;6.40;99.90
1297;DHT22;641;48.492;9.184;2024-03-08T12:15:22;6.60;99.90
1297;DHT22;641;48.492;9.184;2024-03-08T12:17:50;6.60;99.90
1297;DHT22;641;48.492;9.184;2024-03-08T12:20:27;6.70;99.90
1297;DHT22;641;48.492;9.184;2024-03-08T12:22:55;6.70;99.90
1297;DHT22;641;48.492;9.184;2024-03-08T12:25:33;6.70;99.90
1297;DHT22;641;48.492;9.184;2024-03-08T12:28:12;6.60;99.90
1297;DHT22;641;48.492;9.184;2024-03-08T12:30:50;6.60;99.90
1297;DHT22;641;48.492;9.184;2024-03-08T12:33:19;6.60;99.90
1297;DHT22;641;48.492;9.184;2024-03-08T12:35:53;6.60;99.90
1297;DHT22;641;48.492;9.184;2024-03-08T12:38:23;6.60;99.90
1297;DHT22;641;48.492;9.184;2024-03-08T12:40:55;6.80;99.90
1297;DHT22;641;48.492;9.184;2024-03-08T12:43:22;6.90;99.90
1297;DHT22;641;48.492;9.184;2024-03-08T12:45:47;6.80;99.90
1297;DHT22;641;48.492;9.184;2024-03-08T12:48:14;6.80;99.90
1297;DHT22;641;48.492;9.184;2024-03-08T12:50:41;6.80;99.90
1297;DHT22;641;48.492;9.184;2024-03-08T12:53:08;6.80;99.90
1297;DHT22;641;48.492;9.184;2024-03-08T12:55:34;6.80;99.90
1297;DHT22;641;48.492;9.184;2024-03-08T12:58:00;6.80;99.90
1297;DHT22;641;48.492;9.184;2024-03-08T13:00:26;6.80;99.90
1297;DHT22;641;48.492;9.184;2024-03-08T13:02:53;6.90;99.90
1297;DHT22;641;48.492;9.184;2024-03-08T13:05:19;7.00;99.90
1297;DHT22;641;48.492;9.184;2024-03-08T13:07:45;7.00;99.90
1297;DHT22;641;48.492;9.184;2024-03-08T13:10:12;7.00;99.90
1297;DHT22;641;48.492;9.184;2024-03-08T13:12:41;7.10;99.90
1297;DHT22;641;48.492;9.184;2024-03-08T13:15:07;7.10;99.90
1297;DHT22;641;48.492;9.184;2024-03-08T13:17:34;7.20;99.90
1297;DHT22;641;48.492;9.184;2024-03-08T13:19:59;7.20;99.90
1297;DHT22;641;48.492;9.184;2024-03-08T13:22:25;7.30;99.90
1297;DHT22;641;48.492;9.184;2024-03-08T13:24:51;7.30;99.90
1297;DHT22;641;48.492;9.184;2024-03-08T13:27:17;7.30;99.90
1297;DHT22;641;48.492;9.184;2024-03-08T13:29:48;7.40;99.90
1297;DHT22;641;48.492;9.184;2024-03-08T13:32:15;7.40;99.90
1297;DHT22;641;48.492;9.184;2024-03-08T13:34:42;7.40;99.90
1297;DHT22;641;48.492;9.184;2024-03-08T13:37:08;7.40;99.90
1297;DHT22;641;48.492;9.184;2024-03-08T13:39:38;7.40;99.90
1297;DHT22;641;48.492;9.184;2024-03-08T13:42:12;7.50;99.90
1297;DHT22;641;48.492;9.184;2024-03-08T13:44:48;7.50;99.90
1297;DHT22;641;48.492;9.184;2024-03-08T13:47:17;7.60;99.90
1297;DHT22;641;48.492;9.184;2024-03-08T13:49:43;7.70;99.90
1297;DHT22;641;48.492;9.184;2024-03-08T13:52:12;7.70;99.90
1297;DHT22;641;48.492;9.184;2024-03-08T13:54:40;7.70;99.90
1297;DHT22;641;48.492;9.184;2024-03-08T13:57:06;7.70;99.90
1297;DHT22;641;48.492;9.184;2024-03-08T13:59:33;7.80;99.90
1297;DHT22;641;48.492;9.184;2024-03-08T14:02:00;7.80;99.90
1297;DHT22;641;48.492;9.184;2024-03-08T14:04:27;7.90;99.90
1297;DHT22;641;48.492;9.184;2024-03-08T14:06:53;8.00;99.90
1297;DHT22;641;48.492;9.184;2024-03-08T14:09:23;8.10;99.90
1297;DHT22;641;48.492;9.184;2024-03-08T14:11:53;8.10;99.90
1297;DHT22;641;48.492;9.184;2024-03-08T14:14:20;8.20;99.90
1297;DHT22;641;48.492;9.184;2024-03-08T14:16:47;8.20;99.90
1297;DHT22;641;48.492;9.184;2024-03-08T14:19:13;8.30;99.90
1297;DHT22;641;48.492;9.184;2024-03-08T14:21:40;8.40;99.90
1297;DHT22;641;48.492;9.184;2024-03-08T14:24:07;8.50;99.90
1297;DHT22;641;48.492;9.184;2024-03-08T14:26:33;8.50;99.90
1297;DHT22;641;48.492;9.184;2024-03-08T14:28:59;8.50;99.90
1297;DHT22;641;48.492;9.184;2024-03-08T14:31:25;8.60;99.90
1297;DHT22;641;48.492;9.184;2024-03-08T14:33:51;8.60;99.90
1297;DHT22;641;48.492;9.184;2024-03-08T14:36:18;8.70;99.90
1297;DHT22;641;48.492;9.184;2024-03-08T14:38:46;8.60;99.90
1297;DHT22;641;48.492;9.184;2024-03-08T14:41:13;8.70;99.90
1297;DHT22;641;48.492;9.184;2024-03-08T14:43:42;8.70;99.90
1297;DHT22;641;48.492;9.184;2024-03-08T14:46:10;8.70;99.90
1297;DHT22;641;48.492;9.184;2024-03-08T14:48:39;8.70;99.90
1297;DHT22;641;48.492;9.184;2024-03-08T14:51:06;8.80;99.90
1297;DHT22;641;48.492;9.184;2024-03-08T14:53:35;8.80;99.90
1297;DHT22;641;48.492;9.184;2024-03-08T14:56:01;8.90;99.90
1297;DHT22;641;48.492;9.184;2024-03-08T14:58:26;8.80;99.90
1297;DHT22;641;48.492;9.184;2024-03-08T15:00:53;8.90;99.90
1297;DHT22;641;48.492;9.184;2024-03-08T15:03:21;8.90;99.90
1297;DHT22;641;48.492;9.184;2024-03-08T15:05:50;9.00;99.90
1297;DHT22;641;48.492;9.184;2024-03-08T15:08:15;9.00;99.90
1297;DHT22;641;48.492;9.184;2024-03-08T15:10:49;9.10;99.90
1297;DHT22;641;48.492;9.184;2024-03-08T15:13:20;9.10;99.90
1297;DHT22;641;48.492;9.184;2024-03-08T15:15:53;9.10;99.90
1297;DHT22;641;48.492;9.184;2024-03-08T15:18:25;9.20;99.90
1297;DHT22;641;48.492;9.184;2024-03-08T15:20:52;9.20;99.90
1297;DHT22;641;48.492;9.184;2024-03-08T15:23:18;9.20;99.90
1297;DHT22;641;48.492;9.184;2024-03-08T15:25:44;9.30;99.90
1297;DHT22;641;48.492;9.184;2024-03-08T15:28:17;9.20;99.90
1297;DHT22;641;48.492;9.184;2024-03-08T15:30:46;9.20;99.90
1297;DHT22;641;48.492;9.184;2024-03-08T15:33:15;9.20;99.90
1297;DHT22;641;48.492;9.184;2024-03-08T15:35:50;9.20;99.90
1297;DHT22;641;48.492;9.184;2024-03-08T15:38:23;9.20;99.90
1297;DHT22;641;48.492;9.184;2024-03-08T15:40:49;9.20;99.90
1297;DHT22;641;48.492;9.184;2024-03-08T15:43:16;9.20;99.90
1297;DHT22;641;48.492;9.184;2024-03-08T15:45:43;9.20;99.90
1297;DHT22;641;48.492;9.184;2024-03-08T15:48:09;9.20;99.90
1297;DHT22;641;48.492;9.184;2024-03-08T15:50:35;9.20;99.90
1297;DHT22;641;48.492;9.184;2024-03-08T15:53:01;9.30;99.90
1297;DHT22;641;48.492;9.184;2024-03-08T15:55:26;9.80;99.90
1297;DHT22;641;48.492;9.184;2024-03-08T15:57:53;10.90;99.90
1297;DHT22;641;48.492;9.184;2024-03-08T16:00:23;11.70;99.90
1297;DHT22;641;48.492;9.184;2024-03-08T16:03:07;12.10;99.90
1297;DHT22;641;48.492;9.184;2024-03-08T16:05:36;11.90;99.90
1297;DHT22;641;48.492;9.184;2024-03-08T16:08:02;11.60;99.90
1297;DHT22;641;48.492;9.184;2024-03-08T16:10:28;11.30;99.90
1297;DHT22;641;48.492;9.184;2024-03-08T16:12:56;10.70;99.90
1297;DHT22;641;48.492;9.184;2024-03-08T16:15:21;10.20;99.90
1297;DHT22;641;48.492;9.184;2024-03-08T16:17:47;9.70;99.90
1297;DHT22;641;48.492;9.184;2024-03-08T16:20:16;9.40;99.90
1297;DHT22;641;48.492;9.184;2024-03-08T16:22:46;9.20;99.90
1297;DHT22;641;48.492;9.184;2024-03-08T16:25:12;9.00;99.90
1297;DHT22;641;48.492;9.184;2024-03-08T16:27:42;8.80;99.90
1297;DHT22;641;48.492;9.184;2024-03-08T16:30:08;8.70;99.90
1297;DHT22;641;48.492;9.184;2024-03-08T16:32:35;8.60;99.90
1297;DHT22;641;48.492;9.184;2024-03-08T16:35:01;8.50;99.90
1297;DHT22;641;48.492;9.184;2024-03-08T16:37:26;8.30;99.90
1297;DHT22;641;48.492;9.184;2024-03-08T16:39:55;8.20;99.90